Time;durP1;ratioP1;P1;durP2;ratioP2;P2;SDS_P1;SDS_P2;PMS_P1;PMS_P2;Temp;Humidity;BMP_temperature;BMP_pressure;BME280_temperature;BME280_humidity;BME280_pressure;Samples;Min_cycle;Max_cycle;Signal;HPM_P1;HPM_P2
2021/11/05 00:00:05;;;;;;;10.48;5.75;;;11.90;93.20;;;;;;5030168;28;20176;-75
2021/11/05 00:02:31;;;;;;;10.77;6.97;;;11.90;92.90;;;;;;5019553;28;20741;-75
2021/11/05 00:04:57;;;;;;;8.57;6.28;;;11.90;93.00;;;;;;5026999;28;20274;-74
2021/11/05 00:07:23;;;;;;;10.43;5.70;;;11.90;92.90;;;;;;5034098;28;20271;-73
2021/11/05 00:09:49;;;;;;;8.68;6.55;;;11.90;92.80;;;;;;5024326;28;20176;-74
2021/11/05 00:12:14;;;;;;;10.02;6.75;;;11.90;92.60;;;;;;5028721;28;20290;-74
2021/11/05 00:14:41;;;;;;;8.43;5.80;;;11.90;92.80;;;;;;5030279;28;20223;-74
2021/11/05 00:17:08;;;;;;;9.55;6.47;;;11.80;92.80;;;;;;5026812;28;20195;-74
2021/11/05 00:19:34;;;;;;;7.68;6.20;;;11.80;92.50;;;;;;5031374;28;20673;-74
2021/11/05 00:22:00;;;;;;;8.95;6.43;;;11.80;93.60;;;;;;5032777;28;20199;-74
2021/11/05 00:24:25;;;;;;;8.50;5.65;;;11.70;93.60;;;;;;5027919;28;20668;-75
2021/11/05 00:26:51;;;;;;;5.72;5.22;;;11.70;93.90;;;;;;5027218;28;20732;-75
2021/11/05 00:29:17;;;;;;;9.70;5.40;;;11.70;94.00;;;;;;5025412;28;20984;-75
2021/11/05 00:31:42;;;;;;;7.90;5.75;;;11.70;94.40;;;;;;5026134;28;20267;-73
2021/11/05 00:34:11;;;;;;;9.80;5.43;;;11.70;94.10;;;;;;5031241;28;20795;-74
2021/11/05 00:36:37;;;;;;;7.78;5.55;;;11.70;94.30;;;;;;5027660;28;20216;-75
2021/11/05 00:39:03;;;;;;;8.27;5.50;;;11.70;94.00;;;;;;5026097;28;20250;-75
2021/11/05 00:41:29;;;;;;;7.70;5.25;;;11.60;94.50;;;;;;5027635;28;20228;-74
2021/11/05 00:43:55;;;;;;;11.98;5.30;;;11.60;94.80;;;;;;5034306;28;20183;-76
2021/11/05 00:46:20;;;;;;;12.32;5.03;;;11.50;94.90;;;;;;5012667;28;20278;-78
2021/11/05 00:48:46;;;;;;;13.60;5.72;;;11.50;95.30;;;;;;5037024;28;20176;-78
2021/11/05 00:51:12;;;;;;;6.50;4.97;;;11.50;95.40;;;;;;5016515;28;20692;-77
2021/11/05 00:53:37;;;;;;;9.88;5.50;;;11.50;95.30;;;;;;5028421;28;20204;-77
2021/11/05 00:56:03;;;;;;;7.15;5.07;;;11.50;94.90;;;;;;5032080;28;20623;-76
2021/11/05 00:58:29;;;;;;;5.40;4.85;;;11.50;95.10;;;;;;5027261;28;20989;-76
2021/11/05 01:00:55;;;;;;;5.35;4.55;;;11.50;95.30;;;;;;5032921;28;20183;-77
2021/11/05 01:03:20;;;;;;;7.95;5.32;;;11.50;94.90;;;;;;5034040;28;20580;-76
2021/11/05 01:05:46;;;;;;;5.53;4.72;;;11.40;95.40;;;;;;5037340;28;20258;-77
2021/11/05 01:08:12;;;;;;;7.85;5.60;;;11.40;95.80;;;;;;5030603;28;20206;-77
2021/11/05 01:10:38;;;;;;;7.28;4.90;;;11.30;95.80;;;;;;5016079;28;20196;-77
2021/11/05 01:13:06;;;;;;;6.25;4.40;;;11.40;95.70;;;;;;5032064;28;20192;-76
2021/11/05 01:15:32;;;;;;;4.80;4.32;;;11.40;95.20;;;;;;5013596;28;20276;-76
2021/11/05 01:17:58;;;;;;;7.00;4.65;;;11.40;95.40;;;;;;5030170;28;20675;-77
2021/11/05 01:20:24;;;;;;;6.85;4.95;;;11.40;96.00;;;;;;5031848;28;20179;-77
2021/11/05 01:22:50;;;;;;;8.35;4.13;;;11.40;95.80;;;;;;5031557;28;20184;-77
2021/11/05 01:25:16;;;;;;;8.63;4.82;;;11.30;95.50;;;;;;5032568;28;20224;-77
2021/11/05 01:27:46;;;;;;;6.82;4.22;;;11.30;95.60;;;;;;5013094;28;20183;-77
2021/11/05 01:30:13;;;;;;;6.65;4.13;;;11.30;95.50;;;;;;5035470;28;20205;-77
2021/11/05 01:32:41;;;;;;;6.00;4.35;;;11.30;95.50;;;;;;5038573;28;20176;-76
2021/11/05 01:35:09;;;;;;;6.68;5.25;;;11.30;95.40;;;;;;5034292;28;20662;-76
2021/11/05 01:37:34;;;;;;;4.38;3.95;;;11.20;95.40;;;;;;5038790;28;20581;-76
2021/11/05 01:40:05;;;;;;;6.05;4.68;;;11.30;95.40;;;;;;5037584;28;20187;-77
2021/11/05 01:42:33;;;;;;;6.43;4.95;;;11.30;95.60;;;;;;5034544;28;20183;-76
2021/11/05 01:44:59;;;;;;;12.75;4.55;;;11.30;96.20;;;;;;5034413;28;20184;-76
2021/11/05 01:47:25;;;;;;;7.47;4.70;;;11.30;95.80;;;;;;5033776;28;20190;-78
2021/11/05 01:49:51;;;;;;;5.57;4.53;;;11.20;95.60;;;;;;5029461;28;20191;-76
2021/11/05 01:52:17;;;;;;;10.77;4.60;;;11.20;95.80;;;;;;5035814;28;20259;-77
2021/11/05 01:54:43;;;;;;;5.22;4.38;;;11.10;95.60;;;;;;5032552;28;20663;-76
2021/11/05 01:57:09;;;;;;;8.98;4.78;;;11.10;96.20;;;;;;5039531;28;20205;-77
2021/11/05 01:59:37;;;;;;;4.68;3.95;;;11.00;96.20;;;;;;5035501;28;20685;-77
2021/11/05 02:02:06;;;;;;;8.27;4.82;;;11.00;96.70;;;;;;5030900;28;20665;-77
2021/11/05 02:04:32;;;;;;;4.70;4.30;;;11.00;96.40;;;;;;5036100;28;20218;-77
2021/11/05 02:06:58;;;;;;;5.22;4.63;;;11.00;96.50;;;;;;5035033;28;20176;-76
2021/11/05 02:09:26;;;;;;;5.65;4.63;;;10.90;96.80;;;;;;5025857;28;20195;-76
2021/11/05 02:11:56;;;;;;;6.03;4.75;;;10.90;97.50;;;;;;5032093;28;20241;-76
2021/11/05 02:14:24;;;;;;;5.22;4.70;;;10.90;97.70;;;;;;5035171;28;20190;-77
2021/11/05 02:16:53;;;;;;;6.07;4.65;;;10.80;97.30;;;;;;5037706;28;20703;-77
2021/11/05 02:19:20;;;;;;;7.32;4.80;;;10.80;97.00;;;;;;5032823;28;20176;-77
2021/11/05 02:21:48;;;;;;;4.65;4.25;;;10.80;97.30;;;;;;5036509;28;20259;-77
2021/11/05 02:24:15;;;;;;;7.78;4.78;;;10.70;97.60;;;;;;5034787;28;20183;-77
2021/11/05 02:26:43;;;;;;;6.72;4.85;;;10.70;98.00;;;;;;5032578;28;20188;-77
2021/11/05 02:29:09;;;;;;;4.47;4.10;;;10.70;98.40;;;;;;5016947;28;20176;-77
2021/11/05 02:31:35;;;;;;;6.55;3.92;;;10.70;98.50;;;;;;5033015;28;20183;-77
2021/11/05 02:34:01;;;;;;;5.30;3.58;;;10.70;98.00;;;;;;5034733;28;20215;-77
2021/11/05 02:36:27;;;;;;;7.72;3.33;;;10.70;98.10;;;;;;5034124;28;20255;-77
2021/11/05 02:38:55;;;;;;;6.95;4.22;;;10.80;98.20;;;;;;5038636;28;20200;-77
2021/11/05 02:41:21;;;;;;;5.50;4.25;;;10.80;98.10;;;;;;5019318;28;20742;-77
2021/11/05 02:43:48;;;;;;;5.60;3.30;;;10.80;98.00;;;;;;5041977;28;20666;-77
2021/11/05 02:46:14;;;;;;;4.32;3.83;;;10.80;97.80;;;;;;5029450;28;20184;-77
2021/11/05 02:48:40;;;;;;;4.32;3.67;;;10.80;97.80;;;;;;5032646;28;20617;-77
2021/11/05 02:51:06;;;;;;;4.28;3.75;;;10.80;97.60;;;;;;5029999;28;20184;-77
2021/11/05 02:53:32;;;;;;;4.68;3.78;;;10.80;97.50;;;;;;5029509;28;20185;-76
2021/11/05 02:55:58;;;;;;;4.40;3.78;;;10.80;97.90;;;;;;5029749;28;20298;-77
2021/11/05 02:58:23;;;;;;;7.60;3.92;;;10.80;97.80;;;;;;5034529;28;20215;-76
2021/11/05 03:00:51;;;;;;;4.13;3.53;;;10.80;97.60;;;;;;5031286;28;20215;-77
2021/11/05 03:03:17;;;;;;;6.38;3.55;;;10.80;97.10;;;;;;5035836;28;20180;-77
2021/11/05 03:05:43;;;;;;;5.28;3.60;;;10.80;97.00;;;;;;5033610;28;20188;-77
2021/11/05 03:08:09;;;;;;;4.93;4.32;;;10.80;97.20;;;;;;5039317;28;20269;-77
2021/11/05 03:10:35;;;;;;;7.28;4.30;;;10.80;96.90;;;;;;5034088;28;20181;-76
2021/11/05 03:13:01;;;;;;;3.40;3.05;;;10.80;96.80;;;;;;5029046;28;20190;-77
2021/11/05 03:15:28;;;;;;;7.13;4.10;;;10.70;96.80;;;;;;5035193;28;20227;-77
2021/11/05 03:17:55;;;;;;;3.75;3.45;;;10.60;96.80;;;;;;5036602;28;20183;-76
2021/11/05 03:20:22;;;;;;;4.07;3.50;;;10.60;96.90;;;;;;5033583;28;20192;-76
2021/11/05 03:22:47;;;;;;;6.35;3.67;;;10.60;97.00;;;;;;5032475;28;20261;-76
2021/11/05 03:25:14;;;;;;;4.03;3.63;;;10.60;96.80;;;;;;5038828;28;20682;-77
2021/11/05 03:27:40;;;;;;;3.92;3.50;;;10.50;97.00;;;;;;5034007;28;20176;-77
2021/11/05 03:30:09;;;;;;;3.15;2.95;;;10.50;97.10;;;;;;5034844;28;20185;-76
2021/11/05 03:32:36;;;;;;;5.72;3.53;;;10.50;97.00;;;;;;5031673;28;20188;-76
2021/11/05 03:35:03;;;;;;;4.38;3.60;;;10.50;97.40;;;;;;5031784;28;20216;-77
2021/11/05 03:37:28;;;;;;;6.22;3.90;;;10.40;97.30;;;;;;5032849;28;20177;-77
2021/11/05 03:39:54;;;;;;;3.33;2.70;;;10.40;97.10;;;;;;5017899;28;20184;-76
2021/11/05 03:42:20;;;;;;;4.13;3.45;;;10.40;97.20;;;;;;5033613;28;20242;-77
2021/11/05 03:44:45;;;;;;;4.65;3.55;;;10.30;97.60;;;;;;5013920;28;20570;-76
2021/11/05 03:47:11;;;;;;;3.40;3.10;;;10.30;97.60;;;;;;5036473;28;20188;-76
2021/11/05 03:49:37;;;;;;;6.85;3.92;;;10.30;97.60;;;;;;5028454;28;20188;-76
2021/11/05 03:52:03;;;;;;;3.85;3.40;;;10.30;97.90;;;;;;5032938;28;20184;-76
2021/11/05 03:54:28;;;;;;;4.47;3.93;;;10.30;98.20;;;;;;5037657;28;20192;-76
2021/11/05 03:56:54;;;;;;;7.60;3.92;;;10.30;98.00;;;;;;5034632;28;20176;-76
2021/11/05 03:59:20;;;;;;;5.15;4.13;;;10.30;98.10;;;;;;5032092;28;20188;-77
2021/11/05 04:01:46;;;;;;;7.75;3.78;;;10.30;98.00;;;;;;5036865;28;20182;-76
2021/11/05 04:04:13;;;;;;;6.40;3.25;;;10.20;97.80;;;;;;5034712;28;20176;-76
2021/11/05 04:06:39;;;;;;;4.30;3.80;;;10.20;97.90;;;;;;5030993;28;20191;-76
2021/11/05 04:09:05;;;;;;;4.68;2.97;;;10.20;98.30;;;;;;5036018;28;20180;-76
2021/11/05 04:11:31;;;;;;;5.57;3.45;;;10.20;98.40;;;;;;5015703;28;20460;-77
2021/11/05 04:13:56;;;;;;;3.73;3.13;;;10.20;98.30;;;;;;5031420;28;20180;-76
2021/11/05 04:16:22;;;;;;;7.63;3.08;;;10.20;98.50;;;;;;5036565;28;20214;-76
2021/11/05 04:18:48;;;;;;;4.43;3.80;;;10.20;98.40;;;;;;5032537;28;20184;-76
2021/11/05 04:21:14;;;;;;;5.25;3.33;;;10.20;98.40;;;;;;5036377;28;20179;-76
2021/11/05 04:23:40;;;;;;;5.40;3.85;;;10.30;98.30;;;;;;5029930;28;20187;-77
2021/11/05 04:26:06;;;;;;;4.95;3.65;;;10.20;98.40;;;;;;5030900;28;20649;-77
2021/11/05 04:28:32;;;;;;;4.03;3.60;;;10.30;98.30;;;;;;5013537;28;20266;-77
2021/11/05 04:31:00;;;;;;;3.47;3.17;;;10.20;98.40;;;;;;5030175;28;20235;-76
2021/11/05 04:33:25;;;;;;;4.93;3.42;;;10.20;98.30;;;;;;5033986;28;20180;-77
2021/11/05 04:36:05;;;;;;;9.07;3.97;;;10.20;98.50;;;;;;5115566;27;20572;-76
2021/11/05 04:38:31;;;;;;;5.88;3.33;;;10.30;98.40;;;;;;5110377;28;20204;-77
2021/11/05 04:40:57;;;;;;;4.13;3.17;;;10.20;98.50;;;;;;5111688;28;20193;-76
2021/11/05 04:43:23;;;;;;;5.70;3.10;;;10.20;98.40;;;;;;5109284;28;20177;-77
2021/11/05 04:45:49;;;;;;;4.25;3.75;;;10.20;98.50;;;;;;5115668;28;20226;-77
2021/11/05 04:48:15;;;;;;;3.35;3.05;;;10.20;98.40;;;;;;5110268;28;20182;-75
2021/11/05 04:50:41;;;;;;;5.38;3.95;;;10.20;98.40;;;;;;5116222;28;20170;-76
2021/11/05 04:53:07;;;;;;;3.78;3.13;;;10.10;98.50;;;;;;5108866;28;20208;-76
2021/11/05 04:55:33;;;;;;;5.18;3.42;;;10.10;98.40;;;;;;5106892;28;20659;-76
2021/11/05 04:57:59;;;;;;;6.88;3.42;;;10.10;98.30;;;;;;5103128;28;20197;-74
2021/11/05 05:00:26;;;;;;;7.97;3.30;;;10.10;98.30;;;;;;5107783;28;20213;-77
2021/11/05 05:02:53;;;;;;;4.47;3.38;;;10.10;98.40;;;;;;5108804;28;21015;-77
2021/11/05 05:05:20;;;;;;;6.97;3.87;;;10.00;98.30;;;;;;5114919;28;20590;-77
2021/11/05 05:07:46;;;;;;;4.18;2.58;;;10.00;98.30;;;;;;5114728;28;20201;-77
2021/11/05 05:10:13;;;;;;;3.17;2.90;;;10.00;98.50;;;;;;5106558;28;20221;-77
2021/11/05 05:12:40;;;;;;;3.75;3.17;;;10.10;98.40;;;;;;5107262;28;20580;-75
2021/11/05 05:15:08;;;;;;;7.43;4.30;;;10.00;98.50;;;;;;5107242;28;20643;-77
2021/11/05 05:17:34;;;;;;;8.40;3.77;;;10.00;98.50;;;;;;5104276;28;20188;-76
2021/11/05 05:20:00;;;;;;;4.82;4.07;;;10.00;98.50;;;;;;5113264;28;20169;-76
2021/11/05 05:22:25;;;;;;;4.35;4.00;;;10.00;98.50;;;;;;5109552;28;20206;-76
2021/11/05 05:24:51;;;;;;;4.47;4.13;;;10.00;98.50;;;;;;5106043;28;20212;-78
2021/11/05 05:27:17;;;;;;;4.43;4.13;;;10.00;98.50;;;;;;5105767;28;20189;-76
2021/11/05 05:29:44;;;;;;;4.85;4.45;;;10.10;98.50;;;;;;5102920;28;20177;-77
2021/11/05 05:32:10;;;;;;;8.18;4.60;;;10.10;98.50;;;;;;5108667;28;20813;-77
2021/11/05 05:34:35;;;;;;;5.83;3.73;;;10.10;98.50;;;;;;5105905;28;20219;-75
2021/11/05 05:37:01;;;;;;;6.45;4.20;;;10.10;98.50;;;;;;5106484;28;20185;-77
2021/11/05 05:39:27;;;;;;;4.05;3.60;;;10.10;98.50;;;;;;5111290;28;21558;-75
2021/11/05 05:41:53;;;;;;;5.63;3.90;;;10.10;98.50;;;;;;5102057;28;20201;-76
2021/11/05 05:44:20;;;;;;;4.68;3.90;;;10.10;98.50;;;;;;5109137;28;20756;-76
2021/11/05 05:46:46;;;;;;;7.63;4.72;;;10.20;98.50;;;;;;5094886;28;20182;-76
2021/11/05 05:49:11;;;;;;;6.47;4.75;;;10.20;98.50;;;;;;5099920;28;20194;-76
2021/11/05 05:51:37;;;;;;;8.88;4.30;;;10.20;98.50;;;;;;5091313;28;20183;-77
2021/11/05 05:54:03;;;;;;;5.82;4.35;;;10.30;98.50;;;;;;5094393;28;20258;-77
2021/11/05 05:56:29;;;;;;;7.13;3.90;;;10.30;98.50;;;;;;5090379;28;20747;-76
2021/11/05 05:58:54;;;;;;;5.80;4.00;;;10.30;98.50;;;;;;5097131;28;20184;-76
2021/11/05 06:01:21;;;;;;;5.03;4.55;;;10.30;98.50;;;;;;5093150;28;20174;-76
2021/11/05 06:03:46;;;;;;;4.72;4.35;;;10.30;98.50;;;;;;5094942;28;20220;-76
2021/11/05 06:06:12;;;;;;;9.32;4.40;;;10.40;98.50;;;;;;5085968;28;20652;-76
2021/11/05 06:08:40;;;;;;;7.20;4.38;;;10.40;98.50;;;;;;5092638;28;20182;-75
2021/11/05 06:11:09;;;;;;;6.70;4.93;;;10.50;98.50;;;;;;5084757;28;20779;-73
2021/11/05 06:13:35;;;;;;;5.13;4.50;;;10.50;98.50;;;;;;5096316;28;20677;-73
2021/11/05 06:16:02;;;;;;;6.97;4.82;;;10.60;98.50;;;;;;5096386;28;20209;-74
2021/11/05 06:18:28;;;;;;;6.50;5.03;;;10.60;98.50;;;;;;5097155;28;20188;-73
2021/11/05 06:20:54;;;;;;;7.05;5.22;;;10.70;98.50;;;;;;5094671;28;20192;-74
2021/11/05 06:23:20;;;;;;;7.45;4.68;;;10.80;98.50;;;;;;5088037;28;20183;-74
2021/11/05 06:25:46;;;;;;;7.38;4.97;;;10.90;98.50;;;;;;5094798;28;20734;-74
2021/11/05 06:28:12;;;;;;;6.43;4.50;;;10.90;98.50;;;;;;5084957;28;20193;-73
2021/11/05 06:30:38;;;;;;;8.50;5.90;;;11.00;98.50;;;;;;5094588;28;20170;-74
2021/11/05 06:33:04;;;;;;;9.18;5.40;;;11.10;98.50;;;;;;5093116;28;20659;-73
2021/11/05 06:35:29;;;;;;;5.90;5.25;;;11.30;98.50;;;;;;5082181;28;20210;-73
2021/11/05 06:37:58;;;;;;;7.07;5.68;;;11.60;98.50;;;;;;5097068;28;20189;-73
2021/11/05 06:40:24;;;;;;;10.65;6.75;;;12.00;98.50;;;;;;5091471;28;20265;-74
2021/11/05 06:42:50;;;;;;;8.60;6.55;;;12.30;97.70;;;;;;5091452;28;20261;-73
2021/11/05 06:45:16;;;;;;;7.07;6.38;;;12.70;97.70;;;;;;5097303;28;20189;-73
2021/11/05 06:47:42;;;;;;;8.27;6.40;;;13.20;96.40;;;;;;5087991;28;20186;-76
2021/11/05 06:50:09;;;;;;;7.07;5.60;;;13.60;95.30;;;;;;5100475;28;20191;-77
2021/11/05 06:52:36;;;;;;;10.55;7.25;;;14.10;94.80;;;;;;5087942;28;20314;-76
2021/11/05 06:55:04;;;;;;;10.50;7.05;;;14.60;93.40;;;;;;5084764;28;20216;-76
2021/11/05 06:57:30;;;;;;;13.98;9.40;;;15.10;91.50;;;;;;5090059;28;20420;-76
2021/11/05 06:59:57;;;;;;;12.00;7.95;;;15.50;87.40;;;;;;5091041;28;20190;-75
2021/11/05 07:02:23;;;;;;;13.15;7.70;;;16.00;89.70;;;;;;5095944;28;20174;-78
2021/11/05 07:04:48;;;;;;;9.80;6.80;;;16.60;89.00;;;;;;5090471;28;20214;-76
2021/11/05 07:07:14;;;;;;;9.60;7.63;;;17.00;85.80;;;;;;5088835;28;20747;-77
2021/11/05 07:09:40;;;;;;;9.95;7.47;;;17.40;84.20;;;;;;5089854;28;20299;-78
2021/11/05 07:12:07;;;;;;;9.07;6.88;;;17.90;83.30;;;;;;5091642;28;20178;-81
2021/11/05 07:14:33;;;;;;;9.95;6.70;;;18.40;84.30;;;;;;5089739;28;20193;-77
2021/11/05 07:16:59;;;;;;;9.68;7.32;;;18.80;80.90;;;;;;5089209;28;20201;-78
2021/11/05 07:19:25;;;;;;;9.63;7.47;;;19.30;80.70;;;;;;5087689;28;20659;-76
2021/11/05 07:21:59;;;;;;;10.35;7.32;;;19.80;79.30;;;;;;5088094;28;20186;-78
2021/11/05 07:24:27;;;;;;;11.90;7.25;;;20.20;78.50;;;;;;5090534;28;20177;-77
2021/11/05 07:26:54;;;;;;;10.23;8.07;;;20.60;76.70;;;;;;5095943;28;20184;-77
2021/11/05 07:29:24;;;;;;;13.38;7.60;;;20.90;75.80;;;;;;5095304;28;20186;-78
2021/11/05 07:31:50;;;;;;;11.88;8.23;;;21.20;76.20;;;;;;5089364;28;20856;-79
2021/11/05 07:34:16;;;;;;;14.30;8.63;;;21.50;73.90;;;;;;5092202;28;20290;-79
2021/11/05 07:36:41;;;;;;;12.98;8.43;;;21.70;73.20;;;;;;5095157;28;20883;-79
2021/11/05 07:39:07;;;;;;;12.00;8.13;;;21.70;72.20;;;;;;5092619;28;20238;-78
2021/11/05 07:41:34;;;;;;;11.73;8.57;;;21.70;72.60;;;;;;5092514;28;20206;-79
2021/11/05 07:44:00;;;;;;;14.30;8.35;;;21.80;72.20;;;;;;5093100;28;20239;-80
2021/11/05 07:46:30;;;;;;;11.20;7.88;;;22.00;71.80;;;;;;5091987;28;20891;-79
2021/11/05 07:48:57;;;;;;;14.98;7.85;;;22.20;71.70;;;;;;5086000;28;20273;-78
2021/11/05 07:51:22;;;;;;;12.90;7.43;;;22.60;72.50;;;;;;5092916;28;20189;-78
2021/11/05 07:53:48;;;;;;;8.93;7.35;;;23.00;70.40;;;;;;5086478;28;20194;-79
2021/11/05 07:56:15;;;;;;;10.40;7.63;;;23.30;70.10;;;;;;5095766;28;20185;-79
2021/11/05 07:58:40;;;;;;;10.63;6.95;;;23.70;69.70;;;;;;5092497;28;20186;-79
2021/11/05 08:01:06;;;;;;;9.63;7.60;;;24.00;69.00;;;;;;5093982;28;20186;-78
2021/11/05 08:03:32;;;;;;;6.93;6.22;;;24.40;69.40;;;;;;5095827;28;20185;-79
2021/11/05 08:05:58;;;;;;;12.57;6.90;;;24.90;69.40;;;;;;5085070;28;20272;-79
2021/11/05 08:08:24;;;;;;;10.90;7.13;;;25.30;67.80;;;;;;5090273;28;20243;-78
2021/11/05 08:10:50;;;;;;;14.63;8.05;;;25.80;67.20;;;;;;5087825;28;20568;-79
2021/11/05 08:13:15;;;;;;;10.55;7.55;;;26.30;66.30;;;;;;5090874;28;20259;-78
2021/11/05 08:15:41;;;;;;;12.70;7.38;;;26.70;64.90;;;;;;5083927;28;20294;-78
2021/11/05 08:18:07;;;;;;;8.55;6.78;;;27.10;64.10;;;;;;5085772;28;20190;-78
2021/11/05 08:20:33;;;;;;;12.77;7.90;;;27.60;63.80;;;;;;5090001;28;20258;-75
2021/11/05 08:22:59;;;;;;;8.45;7.22;;;28.00;63.00;;;;;;5088748;28;20182;-75
2021/11/05 08:25:27;;;;;;;7.80;6.75;;;28.40;61.60;;;;;;5092386;28;20686;-76
2021/11/05 08:27:53;;;;;;;9.25;7.38;;;28.70;60.60;;;;;;5093539;28;20617;-77
2021/11/05 08:30:22;;;;;;;10.32;7.55;;;29.10;61.00;;;;;;5093385;28;20584;-77
2021/11/05 08:32:53;;;;;;;8.70;7.55;;;29.40;60.00;;;;;;5089129;28;20178;-77
2021/11/05 08:35:22;;;;;;;8.50;6.57;;;29.90;59.40;;;;;;5094260;28;20206;-76
2021/11/05 08:37:48;;;;;;;11.00;6.70;;;30.30;58.90;;;;;;5084954;28;20643;-77
2021/11/05 08:40:14;;;;;;;8.77;6.82;;;30.60;57.90;;;;;;5087026;28;20193;-77
2021/11/05 08:42:40;;;;;;;15.77;8.18;;;30.90;56.80;;;;;;5090982;28;20711;-77
2021/11/05 08:45:07;;;;;;;9.82;6.90;;;30.70;57.10;;;;;;5091624;28;20259;-78
2021/11/05 08:47:36;;;;;;;11.23;7.07;;;30.60;56.60;;;;;;5090663;28;20181;-78
2021/11/05 08:50:05;;;;;;;8.13;6.90;;;30.60;57.10;;;;;;5093675;28;20169;-79
2021/11/05 08:52:31;;;;;;;6.90;6.25;;;30.40;56.70;;;;;;5094016;28;20182;-78
2021/11/05 08:54:58;;;;;;;10.80;7.85;;;30.30;57.20;;;;;;5092652;28;20214;-77
2021/11/05 08:57:24;;;;;;;7.97;7.18;;;30.10;57.40;;;;;;5089588;28;20177;-76
2021/11/05 08:59:49;;;;;;;14.15;7.78;;;30.00;57.30;;;;;;5092810;28;20186;-77
2021/11/05 09:02:17;;;;;;;9.93;7.72;;;30.00;57.20;;;;;;5093150;28;20265;-78
2021/11/05 09:04:43;;;;;;;9.93;7.00;;;30.10;57.70;;;;;;5089011;28;20190;-78
2021/11/05 09:07:08;;;;;;;9.48;7.13;;;30.30;57.20;;;;;;5088955;28;20182;-77
2021/11/05 09:09:34;;;;;;;8.30;7.57;;;30.50;57.30;;;;;;5093029;28;20589;-77
2021/11/05 09:12:00;;;;;;;9.05;8.15;;;30.70;56.70;;;;;;5079826;28;20183;-79
2021/11/05 09:14:25;;;;;;;9.52;7.53;;;31.00;56.10;;;;;;5088219;28;20210;-78
2021/11/05 09:16:51;;;;;;;10.77;7.90;;;31.50;56.50;;;;;;5086244;28;20186;-79
2021/11/05 09:19:17;;;;;;;11.73;8.27;;;32.00;55.40;;;;;;5094613;28;20186;-79
2021/11/05 09:21:42;;;;;;;8.82;7.85;;;32.30;54.80;;;;;;5096405;28;20318;-78
2021/11/05 09:24:08;;;;;;;8.45;7.68;;;32.60;54.20;;;;;;5096379;28;20201;-83
2021/11/05 09:26:34;;;;;;;9.23;7.97;;;32.70;52.70;;;;;;5093319;28;20192;-79
2021/11/05 09:29:00;;;;;;;11.13;8.77;;;32.80;54.00;;;;;;5090527;28;20189;-79
2021/11/05 09:31:26;;;;;;;10.60;8.40;;;32.80;52.50;;;;;;5094125;28;20184;-79
2021/11/05 09:33:52;;;;;;;12.80;7.95;;;32.30;52.30;;;;;;5094837;28;20186;-79
2021/11/05 09:36:18;;;;;;;11.10;7.20;;;32.00;54.80;;;;;;5089735;28;20193;-79
2021/11/05 09:38:45;;;;;;;13.43;7.57;;;32.00;54.40;;;;;;5092122;28;20310;-78
2021/11/05 09:41:11;;;;;;;10.18;7.47;;;32.10;54.60;;;;;;5097971;28;20174;-78
2021/11/05 09:43:40;;;;;;;10.52;7.55;;;32.30;54.40;;;;;;5090237;28;20182;-78
2021/11/05 09:46:06;;;;;;;10.70;7.00;;;32.40;54.10;;;;;;5092745;28;20186;-79
2021/11/05 09:48:36;;;;;;;14.55;7.30;;;32.40;53.90;;;;;;5091943;28;20283;-79
2021/11/05 09:51:03;;;;;;;17.65;8.00;;;32.40;54.00;;;;;;5090510;28;20243;-79
2021/11/05 09:53:30;;;;;;;10.52;7.90;;;32.20;54.30;;;;;;5092063;28;21212;-79
2021/11/05 09:55:57;;;;;;;12.73;7.57;;;32.10;54.30;;;;;;5089775;28;20210;-80
2021/11/05 09:58:22;;;;;;;13.35;7.43;;;32.10;53.50;;;;;;5090066;28;20942;-77
2021/11/05 10:00:48;;;;;;;10.73;6.68;;;32.20;53.40;;;;;;5086417;28;20185;-79
2021/11/05 10:03:14;;;;;;;14.40;7.60;;;32.40;53.70;;;;;;5095046;28;20670;-80
2021/11/05 10:05:40;;;;;;;7.95;6.88;;;32.50;53.70;;;;;;5088539;28;20194;-77
2021/11/05 10:08:07;;;;;;;9.15;6.28;;;32.50;53.20;;;;;;5088012;28;20178;-81
2021/11/05 10:10:36;;;;;;;11.95;6.93;;;32.50;53.60;;;;;;5092867;28;20186;-80
2021/11/05 10:13:07;;;;;;;16.00;6.93;;;32.50;52.70;;;;;;5086415;28;20193;-80
2021/11/05 10:15:48;;;;;;;7.88;5.93;;;32.50;53.80;;;;;;5091706;28;20218;-81
2021/11/05 10:18:27;;;;;;;7.15;4.82;;;32.50;52.40;;;;;;5103619;27;20565;-80
2021/11/05 10:21:15;;;;;;;8.13;5.40;;;32.70;53.60;;;;;;5089843;28;20207;-80
2021/11/05 10:23:42;;;;;;;5.38;4.85;;;33.00;52.40;;;;;;5089880;28;20216;-80
2021/11/05 10:26:28;;;;;;;6.07;5.38;;;33.30;53.60;;;;;;5090175;28;20190;-79
2021/11/05 10:28:56;;;;;;;5.82;5.32;;;33.60;52.10;;;;;;5091256;28;20205;-77
2021/11/05 10:31:25;;;;;;;11.05;5.32;;;34.00;52.90;;;;;;5085747;28;20485;-80
2021/11/05 10:33:51;;;;;;;5.57;4.93;;;34.40;53.40;;;;;;5089093;28;20178;-78
2021/11/05 10:36:27;;;;;;;11.77;4.97;;;34.90;52.30;;;;;;5096697;28;20193;-78
2021/11/05 10:39:03;;;;;;;6.60;5.00;;;35.30;51.50;;;;;;5096597;28;20191;-75
2021/11/05 10:41:31;;;;;;;7.18;5.32;;;35.60;50.90;;;;;;5091233;28;20195;-80
2021/11/05 10:44:00;;;;;;;5.75;4.82;;;35.70;50.70;;;;;;5095859;28;20719;-80
2021/11/05 10:46:33;;;;;;;8.55;5.50;;;35.80;51.20;;;;;;5088450;28;20182;-81
2021/11/05 10:49:00;;;;;;;5.93;5.32;;;35.80;49.90;;;;;;5093954;28;20182;-79
2021/11/05 10:51:28;;;;;;;10.73;5.70;;;35.80;50.90;;;;;;5094198;28;20784;-77
2021/11/05 10:53:57;;;;;;;5.95;5.45;;;35.90;50.30;;;;;;5087308;28;20186;-78
2021/11/05 10:56:25;;;;;;;9.55;5.95;;;35.90;50.90;;;;;;5091616;28;20640;-77
2021/11/05 10:59:17;;;;;;;11.57;5.95;;;36.20;51.10;;;;;;5085738;28;20558;-77
2021/11/05 11:01:44;;;;;;;7.82;5.95;;;36.40;49.00;;;;;;5089596;28;20185;-77
2021/11/05 11:04:12;;;;;;;6.35;5.85;;;36.50;47.70;;;;;;5088726;28;20247;-78
2021/11/05 11:06:48;;;;;;;12.32;5.75;;;36.50;50.50;;;;;;5085551;28;20689;-80
2021/11/05 11:09:21;;;;;;;6.65;5.90;;;36.40;48.40;;;;;;5091971;28;20205;-78
2021/11/05 11:11:48;;;;;;;9.95;6.70;;;36.20;49.90;;;;;;5094819;28;20682;-82
2021/11/05 11:14:23;;;;;;;7.82;6.13;;;36.10;50.00;;;;;;5094893;28;20196;-81
2021/11/05 11:17:00;;;;;;;17.05;6.00;;;35.90;50.00;;;;;;5087112;28;20983;-80
2021/11/05 11:19:29;;;;;;;6.43;4.78;;;35.90;49.00;;;;;;5089357;28;20215;-79
2021/11/05 11:22:04;;;;;;;4.75;4.45;;;35.90;50.60;;;;;;5087945;28;20635;-78
2021/11/05 11:24:36;;;;;;;7.13;4.80;;;36.00;48.80;;;;;;5091030;28;20184;-81
2021/11/05 11:27:05;;;;;;;12.05;5.32;;;36.00;49.60;;;;;;5087877;28;20188;-82
2021/11/05 11:29:31;;;;;;;7.25;5.68;;;35.90;49.80;;;;;;5095844;28;20191;-83
2021/11/05 11:32:00;;;;;;;6.60;4.95;;;35.90;50.10;;;;;;5090545;28;20185;-83
2021/11/05 11:34:27;;;;;;;5.90;4.57;;;35.90;50.10;;;;;;5091786;28;20205;-83
2021/11/05 11:36:58;;;;;;;12.57;5.07;;;35.80;50.00;;;;;;5091260;28;20280;-78
2021/11/05 11:39:26;;;;;;;4.93;4.50;;;36.00;49.30;;;;;;5089244;28;20246;-78
2021/11/05 11:41:53;;;;;;;6.80;4.18;;;36.20;48.60;;;;;;5103364;28;20189;-79
2021/11/05 11:44:22;;;;;;;11.38;3.00;;;36.30;48.70;;;;;;5097093;28;20174;-79
2021/11/05 11:47:05;;;;;;;7.35;2.60;;;36.30;45.50;;;;;;5104995;28;20617;-79
2021/11/05 11:49:52;;;;;;;7.28;2.63;;;36.10;45.20;;;;;;5100850;28;20189;-79
2021/11/05 11:52:17;;;;;;;9.05;3.35;;;36.20;43.70;;;;;;5101293;28;20602;-76
2021/11/05 11:54:45;;;;;;;4.90;3.33;;;36.00;47.30;;;;;;5096466;28;20241;-79
2021/11/05 11:57:12;;;;;;;10.60;2.70;;;35.90;46.50;;;;;;5091799;28;20238;-79
2021/11/05 11:59:39;;;;;;;12.00;2.50;;;35.50;42.80;;;;;;5094488;28;20213;-78
2021/11/05 12:02:31;;;;;;;5.93;1.48;;;35.10;46.00;;;;;;5088892;28;20180;-77
2021/11/05 12:04:57;;;;;;;11.30;2.55;;;34.60;41.70;;;;;;5087876;28;20280;-77
2021/11/05 12:07:23;;;;;;;11.57;2.97;;;34.30;45.90;;;;;;5091703;28;20177;-76
2021/11/05 12:09:49;;;;;;;6.78;2.88;;;34.40;47.10;;;;;;5092180;28;20174;-78
2021/11/05 12:12:20;;;;;;;14.50;3.13;;;34.30;47.20;;;;;;5098014;28;20217;-81
2021/11/05 12:14:58;;;;;;;10.77;3.67;;;34.30;46.80;;;;;;5090658;28;20213;-78
2021/11/05 12:17:25;;;;;;;7.25;3.30;;;34.30;47.20;;;;;;5089342;28;20192;-79
2021/11/05 12:19:52;;;;;;;11.20;2.85;;;34.20;48.70;;;;;;5095679;28;20181;-78
2021/11/05 12:22:17;;;;;;;8.52;3.30;;;34.30;48.20;;;;;;5093167;28;20189;-80
2021/11/05 12:24:47;;;;;;;7.95;2.75;;;34.40;45.90;;;;;;5087567;28;21740;-79
2021/11/05 12:27:28;;;;;;;7.05;2.80;;;34.40;47.80;;;;;;5090145;28;20181;-80
2021/11/05 12:30:03;;;;;;;8.93;2.83;;;34.00;47.20;;;;;;5093604;28;20770;-80
2021/11/05 12:32:32;;;;;;;15.77;2.65;;;33.30;48.20;;;;;;5087053;28;20192;-78
2021/11/05 12:35:05;;;;;;;11.35;2.17;;;32.60;44.70;;;;;;5090829;28;20221;-78
2021/11/05 12:37:40;;;;;;;22.17;2.78;;;32.30;44.90;;;;;;5090376;28;20241;-80
2021/11/05 12:40:21;;;;;;;12.77;1.85;;;31.90;43.80;;;;;;5093289;28;20178;-79
2021/11/05 12:42:56;;;;;;;17.95;2.63;;;31.40;44.20;;;;;;5087480;28;20758;-78